Pagina principale
METAR-TAF:

METAR-TAF

Aeroporti :

Victoria Falls, Zimbabwe

latitudine: 18-06S, longitudine: 025-51E, altezza: 1061 m

Osservazione

Il bollettino è stato emesso 4 ore e 1 minuti fa, alle 15:00 UTC
Vento 10 kt da est
Temperature 24°C
Umidità 89%
Pressione 1014 hPa
Visibilità 10 km o più
Poco nuvoloso ad un'altezza di 3000 ft, Cumulonembo.
Nuvoloso ad un'altezza di 9000 ft

METAR: FVFA 161500Z 09010KT 9999 FEW030CB BKN090 24/22 Q1014 TEMPO 5000 -TSRA

Ora: 21:01 (19:01 UTC)


TAF: mancante

Osservazioni e previsioni meteorologiche di più di 4000 aeroporti (messaggi METAR e TAF).

Le stazioni disponibili sono rappresentate dai dischi gialli e rossi sulla carta.

Puntare il mouse per vedere il nome della stazione.

Clicca sopra per visualizzare le osservazioni e previsioni meteorologiche.

Per cambiare la mappa : fare clic sui pulsanti verdi con una croce nera per ingrandire, il pulsante verde con un trattino per diminuire, o sulla freccia verde per le mappe adiacenti.


METAR-TAF: